Time;durP1;ratioP1;P1;durP2;ratioP2;P2;SDS_P1;SDS_P2;PMS_P1;PMS_P2;Temp;Humidity;BMP_temperature;BMP_pressure;BME280_temperature;BME280_humidity;BME280_pressure;Samples;Min_cycle;Max_cycle;Signal;HPM_P1;HPM_P2
2021/05/15 00:01:35;;;;;;;1.20;0.97;;;12.90;98.00;;;;;;5109485;28;20550;-75
2021/05/15 00:04:05;;;;;;;1.20;1.00;;;12.90;98.00;;;;;;5111968;28;20577;-74
2021/05/15 00:06:32;;;;;;;1.20;1.00;;;12.90;98.00;;;;;;5108879;28;20893;-74
2021/05/15 00:08:59;;;;;;;1.20;1.00;;;13.00;98.00;;;;;;5112000;28;20462;-75
2021/05/15 00:11:25;;;;;;;1.20;0.90;;;13.00;98.00;;;;;;5109270;28;20457;-75
2021/05/15 00:13:52;;;;;;;1.20;1.00;;;13.00;98.00;;;;;;5111850;28;20451;-74
2021/05/15 00:16:19;;;;;;;1.20;1.00;;;13.00;98.00;;;;;;5108218;28;20466;-75
2021/05/15 00:18:47;;;;;;;1.20;1.00;;;12.90;98.00;;;;;;5110657;28;20539;-74
2021/05/15 00:21:14;;;;;;;1.20;1.00;;;12.80;98.00;;;;;;5109235;28;21249;-74
2021/05/15 00:23:40;;;;;;;1.20;1.00;;;12.70;98.00;;;;;;5111591;28;20939;-74
2021/05/15 00:26:07;;;;;;;1.20;1.00;;;12.70;98.00;;;;;;5108845;28;20451;-74
2021/05/15 00:28:33;;;;;;;1.20;1.00;;;12.80;98.00;;;;;;5110330;28;20554;-74
2021/05/15 00:31:00;;;;;;;1.20;0.90;;;12.80;98.00;;;;;;5109358;28;20452;-75
2021/05/15 00:33:26;;;;;;;1.20;1.00;;;12.70;98.00;;;;;;5110371;28;20449;-74
2021/05/15 00:35:54;;;;;;;1.20;1.00;;;12.70;98.00;;;;;;5111716;28;20465;-75
2021/05/15 00:38:21;;;;;;;1.20;1.00;;;12.70;98.00;;;;;;5110290;28;20453;-74
2021/05/15 00:40:48;;;;;;;1.20;1.00;;;12.60;98.00;;;;;;5111755;28;20481;-75
2021/05/15 00:43:14;;;;;;;1.20;1.00;;;12.60;98.00;;;;;;5109113;28;20578;-74
2021/05/15 00:45:41;;;;;;;1.20;1.00;;;12.60;98.00;;;;;;5115800;28;20523;-74
2021/05/15 00:48:08;;;;;;;1.20;1.00;;;12.60;98.00;;;;;;5113012;28;20519;-74
2021/05/15 00:50:35;;;;;;;1.20;1.00;;;12.60;98.00;;;;;;5114577;28;20452;-74
2021/05/15 00:53:04;;;;;;;2.13;1.10;;;12.50;98.00;;;;;;5112247;28;20447;-75
2021/05/15 00:55:32;;;;;;;1.20;1.00;;;12.60;98.00;;;;;;5115495;28;20462;-75
2021/05/15 00:57:59;;;;;;;1.20;1.00;;;12.60;98.00;;;;;;5112894;28;20560;-74
2021/05/15 01:00:26;;;;;;;1.20;1.00;;;12.50;98.00;;;;;;5115071;28;20983;-75
2021/05/15 01:02:53;;;;;;;1.20;1.07;;;12.60;98.00;;;;;;5112108;28;20529;-75
2021/05/15 01:05:19;;;;;;;1.20;1.10;;;12.60;98.00;;;;;;5114784;28;20534;-74
2021/05/15 01:07:47;;;;;;;1.50;1.10;;;12.60;98.00;;;;;;5111245;28;20835;-74
2021/05/15 01:10:16;;;;;;;1.50;1.13;;;12.50;98.00;;;;;;5114965;28;20474;-75
2021/05/15 01:12:49;;;;;;;1.20;1.00;;;12.60;98.00;;;;;;5111999;28;20522;-75
2021/05/15 01:15:17;;;;;;;1.20;1.00;;;12.60;98.00;;;;;;5113689;28;20970;-74
2021/05/15 01:17:51;;;;;;;1.20;1.00;;;12.60;98.00;;;;;;5112224;28;20465;-74
2021/05/15 01:20:19;;;;;;;1.20;1.00;;;12.50;98.00;;;;;;5114892;28;20451;-75
2021/05/15 01:22:48;;;;;;;1.20;0.90;;;12.50;98.00;;;;;;5111867;28;20549;-74
2021/05/15 01:25:15;;;;;;;1.20;1.00;;;12.50;98.00;;;;;;5114750;28;20456;-75
2021/05/15 01:27:41;;;;;;;1.20;0.90;;;12.50;98.00;;;;;;5112226;28;20465;-74
2021/05/15 01:30:10;;;;;;;1.20;1.00;;;12.50;98.00;;;;;;5114327;27;20460;-74
2021/05/15 01:32:39;;;;;;;1.20;1.10;;;12.50;98.00;;;;;;5110702;28;20483;-74
2021/05/15 01:35:07;;;;;;;1.20;1.00;;;12.50;98.00;;;;;;5113410;28;20458;-74
2021/05/15 01:37:34;;;;;;;1.20;1.00;;;12.30;98.00;;;;;;5111942;28;20978;-74
2021/05/15 01:40:03;;;;;;;1.60;1.17;;;12.20;98.00;;;;;;5114667;28;20482;-74
2021/05/15 01:42:31;;;;;;;1.20;1.00;;;12.10;98.00;;;;;;5111717;28;20493;-74
2021/05/15 01:44:57;;;;;;;1.20;0.90;;;12.00;98.00;;;;;;5112933;28;20486;-75
2021/05/15 01:47:24;;;;;;;1.20;1.00;;;12.00;98.00;;;;;;5110356;28;20911;-74
2021/05/15 01:49:50;;;;;;;1.20;0.90;;;11.80;98.00;;;;;;5113045;28;20467;-74
2021/05/15 01:52:17;;;;;;;1.20;1.03;;;11.50;98.00;;;;;;5111689;28;20454;-74
2021/05/15 01:54:43;;;;;;;1.20;1.00;;;11.50;98.00;;;;;;5113912;28;20985;-75
2021/05/15 01:57:11;;;;;;;1.20;1.00;;;11.30;98.00;;;;;;5111222;28;20456;-74
2021/05/15 01:59:38;;;;;;;1.20;1.10;;;11.30;98.00;;;;;;5114132;28;20462;-75
2021/05/15 02:02:05;;;;;;;1.20;1.00;;;11.10;98.00;;;;;;5110959;28;20517;-74
2021/05/15 02:04:31;;;;;;;1.20;1.00;;;11.00;98.00;;;;;;5113885;28;20465;-75
2021/05/15 02:06:57;;;;;;;1.20;1.00;;;11.00;98.00;;;;;;5110891;28;20856;-74
2021/05/15 02:09:24;;;;;;;1.20;1.00;;;10.90;98.00;;;;;;5112510;28;20507;-74
2021/05/15 02:11:51;;;;;;;1.20;1.00;;;10.90;98.00;;;;;;5111386;27;20823;-74
2021/05/15 02:14:18;;;;;;;1.20;1.00;;;10.90;98.00;;;;;;5113684;28;20454;-74
2021/05/15 02:16:45;;;;;;;1.20;1.00;;;11.00;98.00;;;;;;5111120;28;20468;-74
2021/05/15 02:19:11;;;;;;;1.30;1.10;;;11.00;98.00;;;;;;5113748;28;20501;-75
2021/05/15 02:21:38;;;;;;;1.20;0.97;;;11.00;98.00;;;;;;5110886;28;20456;-75
2021/05/15 02:24:05;;;;;;;1.20;1.00;;;11.20;98.00;;;;;;5112718;28;20478;-74
2021/05/15 02:26:32;;;;;;;1.20;1.00;;;11.30;98.00;;;;;;5110786;28;20985;-74
2021/05/15 02:28:58;;;;;;;1.20;1.00;;;11.30;98.00;;;;;;5113678;28;20446;-74
2021/05/15 02:31:25;;;;;;;1.20;0.90;;;11.40;98.00;;;;;;5110927;28;20967;-73
2021/05/15 02:33:52;;;;;;;1.20;1.10;;;11.40;98.00;;;;;;5113647;28;20941;-74
2021/05/15 02:36:18;;;;;;;1.20;1.00;;;11.50;98.00;;;;;;5110801;28;20457;-75
2021/05/15 02:38:45;;;;;;;1.20;1.10;;;11.50;98.00;;;;;;5112218;28;20523;-74
2021/05/15 02:41:11;;;;;;;1.20;0.90;;;11.50;98.00;;;;;;5110512;28;20454;-75
2021/05/15 02:43:38;;;;;;;1.67;1.10;;;11.50;98.00;;;;;;5112797;28;20493;-74
2021/05/15 02:46:06;;;;;;;1.20;1.00;;;11.40;98.00;;;;;;5112071;28;20851;-74
2021/05/15 02:48:33;;;;;;;1.20;1.00;;;11.30;98.00;;;;;;5109306;28;20457;-74
2021/05/15 02:50:59;;;;;;;1.20;1.10;;;11.30;98.00;;;;;;5113172;28;20451;-74
2021/05/15 02:53:26;;;;;;;1.20;1.10;;;11.30;98.00;;;;;;5109900;28;20447;-74
2021/05/15 02:55:53;;;;;;;1.20;1.00;;;11.10;98.00;;;;;;5113143;28;20464;-74
2021/05/15 02:58:19;;;;;;;1.73;1.07;;;10.90;98.00;;;;;;5110060;28;20461;-75
2021/05/15 03:00:46;;;;;;;1.20;1.00;;;10.70;98.00;;;;;;5112684;28;20460;-75
2021/05/15 03:03:12;;;;;;;1.53;1.10;;;10.80;98.00;;;;;;5109740;28;20482;-75
2021/05/15 03:05:39;;;;;;;1.20;1.00;;;10.80;98.00;;;;;;5112544;28;20502;-75
2021/05/15 03:08:06;;;;;;;1.20;1.00;;;10.60;98.00;;;;;;5110040;28;20510;-75
2021/05/15 03:10:32;;;;;;;1.20;1.07;;;10.40;98.00;;;;;;5112681;28;20953;-74
2021/05/15 03:12:59;;;;;;;1.20;1.00;;;10.30;98.00;;;;;;5110082;28;20463;-74
2021/05/15 03:15:26;;;;;;;1.20;0.90;;;10.30;98.00;;;;;;5112795;28;20941;-74
2021/05/15 03:17:54;;;;;;;1.20;1.00;;;10.30;98.00;;;;;;5110577;28;20447;-74
2021/05/15 03:20:24;;;;;;;1.70;1.13;;;10.40;98.00;;;;;;5112609;28;20492;-74
2021/05/15 03:22:52;;;;;;;1.20;1.00;;;10.30;98.00;;;;;;5109789;28;20556;-74
2021/05/15 03:25:19;;;;;;;1.20;1.10;;;10.20;98.00;;;;;;5112494;28;20486;-74
2021/05/15 03:27:46;;;;;;;1.20;0.93;;;10.10;98.00;;;;;;5109877;28;20915;-74
2021/05/15 03:30:15;;;;;;;1.20;1.00;;;9.90;98.00;;;;;;5112445;28;20820;-74
2021/05/15 03:32:42;;;;;;;1.20;1.00;;;10.00;98.00;;;;;;5109721;28;20452;-74
2021/05/15 03:35:10;;;;;;;1.30;1.20;;;9.90;98.00;;;;;;5112301;28;20940;-74
2021/05/15 03:37:36;;;;;;;1.20;1.00;;;9.70;98.00;;;;;;5109774;28;20443;-74
2021/05/15 03:40:07;;;;;;;1.20;1.00;;;9.70;98.00;;;;;;5112177;28;20853;-74
2021/05/15 03:42:33;;;;;;;1.20;1.00;;;9.70;98.00;;;;;;5109619;28;20488;-74
2021/05/15 03:45:00;;;;;;;1.20;1.10;;;9.80;98.00;;;;;;5112145;28;20497;-74
2021/05/15 03:47:26;;;;;;;1.20;0.90;;;9.70;98.00;;;;;;5109402;28;20529;-74
2021/05/15 03:49:53;;;;;;;3.00;1.20;;;9.70;98.00;;;;;;5112026;28;20541;-74
2021/05/15 03:52:19;;;;;;;1.40;1.10;;;9.60;98.00;;;;;;5109345;28;20450;-74
2021/05/15 03:54:46;;;;;;;1.67;1.10;;;9.60;98.00;;;;;;5111852;28;20457;-74
2021/05/15 03:57:13;;;;;;;1.20;1.00;;;9.60;98.00;;;;;;5107852;28;20462;-74
2021/05/15 03:59:40;;;;;;;1.20;1.00;;;9.60;98.00;;;;;;5110873;28;20465;-74
2021/05/15 04:02:07;;;;;;;1.20;1.00;;;9.60;98.00;;;;;;5109173;28;20458;-74
2021/05/15 04:04:36;;;;;;;1.60;1.33;;;9.70;98.00;;;;;;5111829;28;20494;-73
2021/05/15 04:07:03;;;;;;;1.40;1.17;;;9.80;98.00;;;;;;5108050;28;20455;-74
2021/05/15 04:09:29;;;;;;;1.50;1.20;;;9.80;98.00;;;;;;5111825;28;20968;-74
2021/05/15 04:11:56;;;;;;;1.20;1.00;;;9.90;98.00;;;;;;5109331;28;20559;-74
2021/05/15 04:14:30;;;;;;;1.20;1.00;;;9.90;98.00;;;;;;5111784;28;20959;-74
2021/05/15 04:17:16;;;;;;;1.20;1.00;;;9.80;98.00;;;;;;5109245;28;20564;-74
2021/05/15 04:19:42;;;;;;;1.20;1.00;;;9.90;98.00;;;;;;5116134;28;20454;-74
2021/05/15 04:22:09;;;;;;;1.20;1.00;;;9.90;98.00;;;;;;5113404;28;20462;-74
2021/05/15 04:24:35;;;;;;;1.20;1.00;;;10.00;98.00;;;;;;5114511;28;20493;-74
2021/05/15 04:27:04;;;;;;;1.20;1.00;;;10.10;98.00;;;;;;5113119;28;20823;-74
2021/05/15 04:29:32;;;;;;;1.20;1.00;;;10.10;98.00;;;;;;5115731;28;20453;-74
2021/05/15 04:31:59;;;;;;;1.30;1.00;;;10.10;98.00;;;;;;5112962;28;20451;-74
2021/05/15 04:34:28;;;;;;;1.20;1.00;;;10.30;98.00;;;;;;5115487;28;20458;-74
2021/05/15 04:36:56;;;;;;;1.20;1.00;;;10.40;98.00;;;;;;5113271;28;20455;-74
2021/05/15 04:39:22;;;;;;;1.20;0.90;;;10.50;98.00;;;;;;5115777;27;20951;-74
2021/05/15 04:41:49;;;;;;;1.30;1.00;;;10.60;98.00;;;;;;5113100;28;20457;-74
2021/05/15 04:44:15;;;;;;;1.20;1.00;;;10.60;98.00;;;;;;5114691;28;21070;-74
2021/05/15 04:46:43;;;;;;;1.20;0.97;;;10.60;98.00;;;;;;5113009;27;21009;-74
2021/05/15 04:49:09;;;;;;;1.20;1.00;;;10.40;98.00;;;;;;5115624;28;20445;-74
2021/05/15 04:51:36;;;;;;;1.57;1.00;;;10.20;98.00;;;;;;5112617;28;20454;-74
2021/05/15 04:54:02;;;;;;;1.20;0.90;;;10.20;98.00;;;;;;5115551;28;20462;-74
2021/05/15 04:56:29;;;;;;;1.20;1.00;;;10.40;98.00;;;;;;5112730;28;20456;-74
2021/05/15 04:58:56;;;;;;;1.20;1.00;;;10.20;98.00;;;;;;5115411;28;20457;-74
2021/05/15 05:01:22;;;;;;;1.20;0.90;;;10.00;98.00;;;;;;5113370;28;20945;-74
2021/05/15 05:03:50;;;;;;;1.20;1.00;;;9.90;98.00;;;;;;5114527;28;20516;-74
2021/05/15 05:06:16;;;;;;;1.20;0.90;;;9.80;98.00;;;;;;5115147;28;20456;-74
2021/05/15 05:08:43;;;;;;;1.20;1.00;;;10.00;98.00;;;;;;5112753;28;20451;-74
2021/05/15 05:11:09;;;;;;;1.30;1.10;;;10.10;98.00;;;;;;5115202;28;20462;-74
2021/05/15 05:13:36;;;;;;;1.20;1.00;;;10.10;98.00;;;;;;5112265;28;21160;-74
2021/05/15 05:16:03;;;;;;;1.27;1.10;;;10.20;98.00;;;;;;5114993;28;20531;-74
2021/05/15 05:18:29;;;;;;;1.20;1.00;;;10.30;98.00;;;;;;5112167;28;20517;-74
2021/05/15 05:20:57;;;;;;;1.20;1.00;;;10.30;98.00;;;;;;5114676;28;20459;-74
2021/05/15 05:23:23;;;;;;;1.20;1.00;;;10.50;98.00;;;;;;5111543;28;20556;-74
2021/05/15 05:25:50;;;;;;;1.20;0.93;;;10.70;98.00;;;;;;5114195;28;20454;-74
2021/05/15 05:28:21;;;;;;;1.20;1.00;;;10.80;98.00;;;;;;5111544;28;20464;-74
2021/05/15 05:30:48;;;;;;;1.20;0.90;;;11.00;98.00;;;;;;5114237;28;20452;-74
2021/05/15 05:33:15;;;;;;;1.20;1.00;;;11.00;98.00;;;;;;5111896;28;20780;-74
2021/05/15 05:35:41;;;;;;;1.20;0.90;;;11.10;98.00;;;;;;5113557;28;20447;-74
2021/05/15 05:38:09;;;;;;;1.20;0.90;;;11.30;98.00;;;;;;5111630;28;20945;-74
2021/05/15 05:40:35;;;;;;;2.30;1.10;;;11.50;98.00;;;;;;5114591;28;20503;-74
2021/05/15 05:43:02;;;;;;;1.20;1.00;;;11.70;98.00;;;;;;5112023;28;21018;-74
2021/05/15 05:45:28;;;;;;;1.20;1.00;;;11.80;98.00;;;;;;5113900;28;20455;-74
2021/05/15 05:47:55;;;;;;;1.20;1.00;;;12.00;98.00;;;;;;5111540;28;20458;-74
2021/05/15 05:50:21;;;;;;;1.20;1.00;;;12.00;98.00;;;;;;5114501;28;20456;-74
2021/05/15 05:52:48;;;;;;;1.20;1.00;;;12.10;98.00;;;;;;5112015;28;20451;-72
2021/05/15 05:55:15;;;;;;;1.20;0.90;;;12.20;98.00;;;;;;5114246;28;20451;-71
2021/05/15 05:57:42;;;;;;;1.20;1.00;;;12.40;98.00;;;;;;5111082;28;20460;-72
2021/05/15 06:00:09;;;;;;;1.20;1.00;;;12.60;98.00;;;;;;5114212;28;20463;-74
2021/05/15 06:02:38;;;;;;;1.20;1.00;;;12.80;98.00;;;;;;5111194;28;20546;-73
2021/05/15 06:05:05;;;;;;;1.20;0.97;;;12.80;98.00;;;;;;5114113;28;20814;-72
2021/05/15 06:07:32;;;;;;;1.20;1.00;;;12.80;98.00;;;;;;5110953;28;20457;-73
2021/05/15 06:09:58;;;;;;;1.20;1.00;;;12.80;98.00;;;;;;5113809;28;20460;-72
2021/05/15 06:12:26;;;;;;;1.20;1.00;;;12.80;98.00;;;;;;5111112;28;20925;-73
2021/05/15 06:14:52;;;;;;;1.20;1.00;;;12.90;98.00;;;;;;5113713;28;20462;-71
2021/05/15 06:17:19;;;;;;;1.53;1.10;;;12.90;98.00;;;;;;5111437;28;20458;-71
2021/05/15 06:19:45;;;;;;;1.20;0.93;;;12.80;98.00;;;;;;5113810;28;20467;-71
2021/05/15 06:22:12;;;;;;;1.20;1.00;;;12.80;98.00;;;;;;5110972;28;20453;-71
2021/05/15 06:24:40;;;;;;;1.20;1.10;;;12.90;98.00;;;;;;5113841;28;20484;-71
2021/05/15 06:27:07;;;;;;;1.20;1.00;;;13.00;98.00;;;;;;5110789;28;20480;-72
2021/05/15 06:29:34;;;;;;;1.20;0.90;;;13.10;98.00;;;;;;5113825;28;20496;-70
2021/05/15 06:32:01;;;;;;;1.20;0.90;;;13.10;98.00;;;;;;5110596;28;20467;-71
2021/05/15 06:34:27;;;;;;;1.20;1.10;;;13.20;98.00;;;;;;5113602;28;20470;-71
2021/05/15 06:36:54;;;;;;;1.20;1.00;;;13.20;98.00;;;;;;5110879;28;20448;-70
2021/05/15 06:39:21;;;;;;;1.20;1.10;;;13.20;98.00;;;;;;5113508;28;20450;-70
2021/05/15 06:41:47;;;;;;;1.20;1.00;;;13.20;98.00;;;;;;5109491;28;20514;-70
2021/05/15 06:44:14;;;;;;;1.40;1.13;;;13.20;98.00;;;;;;5113298;28;20479;-70
2021/05/15 06:46:41;;;;;;;1.20;1.00;;;13.30;97.30;;;;;;5110959;28;20835;-70
2021/05/15 06:49:08;;;;;;;1.20;1.07;;;13.40;96.50;;;;;;5113176;28;20456;-70
2021/05/15 06:51:35;;;;;;;2.07;1.10;;;13.60;95.60;;;;;;5110255;28;20474;-70
2021/05/15 06:54:02;;;;;;;2.30;2.00;;;13.60;96.40;;;;;;5111857;28;20462;-70
2021/05/15 06:56:29;;;;;;;1.30;1.30;;;13.60;95.30;;;;;;5113006;28;20500;-70
2021/05/15 06:58:55;;;;;;;1.20;1.00;;;13.70;95.90;;;;;;5109232;28;20448;-70
2021/05/15 07:01:22;;;;;;;1.20;1.00;;;13.70;93.40;;;;;;5112786;28;20870;-70
2021/05/15 07:03:49;;;;;;;1.20;1.00;;;13.70;93.00;;;;;;5109636;28;20487;-70
2021/05/15 07:06:16;;;;;;;1.57;1.10;;;13.70;93.00;;;;;;5111101;28;20455;-70
2021/05/15 07:08:42;;;;;;;1.20;1.00;;;13.80;94.90;;;;;;5110356;28;20455;-69
2021/05/15 07:11:09;;;;;;;1.40;1.00;;;13.90;93.90;;;;;;5111357;28;20950;-69
2021/05/15 07:13:35;;;;;;;1.20;0.90;;;13.90;93.00;;;;;;5110503;28;20511;-70
2021/05/15 07:16:02;;;;;;;1.20;1.00;;;13.80;92.30;;;;;;5112765;28;20460;-69
2021/05/15 07:18:28;;;;;;;1.20;1.00;;;13.80;92.40;;;;;;5110225;28;20462;-71
2021/05/15 07:20:56;;;;;;;1.20;1.00;;;13.80;93.20;;;;;;5112625;28;20458;-71
2021/05/15 07:23:22;;;;;;;1.20;0.93;;;13.90;94.00;;;;;;5109143;28;20526;-69
2021/05/15 07:25:49;;;;;;;1.20;1.00;;;14.00;93.70;;;;;;5111640;28;20506;-69
2021/05/15 07:28:16;;;;;;;1.20;1.10;;;14.00;93.30;;;;;;5108887;28;20450;-69
2021/05/15 07:30:43;;;;;;;1.20;1.00;;;14.10;93.60;;;;;;5110709;28;20998;-69
2021/05/15 07:33:11;;;;;;;1.20;0.90;;;14.10;92.20;;;;;;5109635;28;20805;-71
2021/05/15 07:35:47;;;;;;;1.20;1.00;;;14.20;92.40;;;;;;5111666;28;20458;-71
2021/05/15 07:38:15;;;;;;;1.20;0.90;;;14.20;93.10;;;;;;5107472;28;20455;-71
2021/05/15 07:40:42;;;;;;;1.50;1.20;;;14.30;95.40;;;;;;5111757;28;20492;-71
2021/05/15 07:43:08;;;;;;;1.20;0.90;;;14.70;96.00;;;;;;5108135;28;20516;-69
2021/05/15 07:45:35;;;;;;;1.20;0.93;;;15.00;98.00;;;;;;5111711;28;20463;-69
2021/05/15 07:48:02;;;;;;;1.20;0.90;;;15.30;92.00;;;;;;5108887;28;20458;-70
2021/05/15 07:50:28;;;;;;;1.20;1.00;;;15.40;91.30;;;;;;5110919;28;20463;-70
2021/05/15 07:52:55;;;;;;;1.87;1.33;;;15.50;90.70;;;;;;5107692;28;20881;-70
2021/05/15 07:55:23;;;;;;;1.20;0.90;;;15.60;92.70;;;;;;5104316;28;20509;-70
2021/05/15 07:57:50;;;;;;;1.50;1.10;;;15.60;90.20;;;;;;5087515;28;20490;-71
2021/05/15 08:00:17;;;;;;;1.20;1.10;;;15.70;91.70;;;;;;5089585;28;20450;-71
2021/05/15 08:02:45;;;;;;;1.20;0.90;;;16.00;90.80;;;;;;5087553;28;20440;-73
2021/05/15 08:05:11;;;;;;;1.20;1.00;;;16.10;89.60;;;;;;5090842;28;20809;-70
2021/05/15 08:07:38;;;;;;;1.23;1.10;;;16.00;90.50;;;;;;5087964;28;20529;-70
2021/05/15 08:10:06;;;;;;;1.20;1.00;;;16.00;89.20;;;;;;5091443;28;20548;-69
2021/05/15 08:12:34;;;;;;;1.20;1.07;;;16.10;89.30;;;;;;5088253;28;20455;-69
2021/05/15 08:15:01;;;;;;;1.20;1.10;;;15.90;87.90;;;;;;5091212;28;20798;-69
2021/05/15 08:17:28;;;;;;;1.20;1.00;;;15.90;90.30;;;;;;5087873;28;20456;-69
2021/05/15 08:19:54;;;;;;;1.20;1.20;;;15.90;89.50;;;;;;5090957;28;20448;-69
2021/05/15 08:22:21;;;;;;;1.20;0.90;;;16.20;90.90;;;;;;5088796;28;20901;-70
2021/05/15 08:24:47;;;;;;;1.20;0.90;;;16.60;88.80;;;;;;5089581;28;20487;-71
2021/05/15 08:27:14;;;;;;;1.20;1.00;;;16.60;86.60;;;;;;5088949;28;20546;-70
2021/05/15 08:29:42;;;;;;;1.30;1.20;;;16.60;87.20;;;;;;5091006;28;20455;-70
2021/05/15 08:32:08;;;;;;;1.20;1.00;;;16.70;86.70;;;;;;5088963;28;20494;-71
2021/05/15 08:34:35;;;;;;;1.20;0.90;;;16.60;86.10;;;;;;5091242;28;20494;-71
2021/05/15 08:37:01;;;;;;;1.20;1.00;;;16.50;87.70;;;;;;5089105;28;20471;-70
2021/05/15 08:39:28;;;;;;;1.20;1.00;;;16.60;87.10;;;;;;5091248;28;20551;-71
2021/05/15 08:41:55;;;;;;;1.20;1.00;;;16.30;87.00;;;;;;5088723;28;20456;-71
2021/05/15 08:44:24;;;;;;;1.20;1.00;;;16.50;87.70;;;;;;5091102;28;20515;-71
2021/05/15 08:46:52;;;;;;;1.20;1.00;;;16.70;87.20;;;;;;5088533;28;20890;-71
2021/05/15 08:49:22;;;;;;;1.60;1.10;;;16.90;86.90;;;;;;5091091;28;20499;-70
2021/05/15 08:51:50;;;;;;;1.60;1.30;;;16.70;85.60;;;;;;5088826;28;20552;-71
2021/05/15 08:54:17;;;;;;;1.20;1.00;;;16.60;85.30;;;;;;5090881;28;20824;-71
2021/05/15 08:56:44;;;;;;;1.20;1.00;;;16.40;85.20;;;;;;5090526;28;20452;-71
2021/05/15 08:59:11;;;;;;;1.20;1.00;;;16.20;84.70;;;;;;5088604;28;20464;-71
2021/05/15 09:01:38;;;;;;;1.20;1.00;;;16.30;86.70;;;;;;5091267;28;20485;-70
2021/05/15 09:04:05;;;;;;;1.20;1.00;;;16.40;86.30;;;;;;5088476;28;20482;-70
2021/05/15 09:06:32;;;;;;;1.20;0.90;;;16.40;85.60;;;;;;5095058;28;20534;-71
2021/05/15 09:08:58;;;;;;;1.60;1.30;;;16.70;86.00;;;;;;5092060;28;20459;-71
2021/05/15 09:11:25;;;;;;;1.20;1.00;;;16.60;85.90;;;;;;5094975;28;20463;-71
2021/05/15 09:13:53;;;;;;;1.30;1.10;;;16.50;88.40;;;;;;5092274;28;20475;-71
2021/05/15 09:16:20;;;;;;;1.20;1.00;;;16.50;85.90;;;;;;5093601;28;20821;-71
2021/05/15 09:18:47;;;;;;;1.20;1.00;;;16.30;87.40;;;;;;5091778;28;20957;-71
2021/05/15 09:21:16;;;;;;;1.20;0.90;;;16.30;87.40;;;;;;5094382;28;20881;-71
2021/05/15 09:23:45;;;;;;;1.20;1.10;;;16.40;87.00;;;;;;5091331;28;20481;-71
2021/05/15 09:26:14;;;;;;;1.20;1.00;;;16.30;86.50;;;;;;5093576;28;20458;-71
2021/05/15 09:28:44;;;;;;;2.47;1.13;;;16.30;85.70;;;;;;5091757;28;20853;-71
2021/05/15 09:31:12;;;;;;;1.20;1.00;;;16.20;88.20;;;;;;5093541;28;20942;-71
2021/05/15 09:33:39;;;;;;;1.30;1.10;;;16.30;89.00;;;;;;5091518;28;20460;-71
2021/05/15 09:36:15;;;;;;;1.20;1.10;;;16.50;86.90;;;;;;5093436;28;20452;-71
2021/05/15 09:38:41;;;;;;;1.20;1.00;;;16.90;86.70;;;;;;5091430;28;20464;-72
2021/05/15 09:41:08;;;;;;;1.20;1.00;;;17.20;85.70;;;;;;5093322;28;20528;-71
2021/05/15 09:43:35;;;;;;;1.20;1.07;;;17.40;83.10;;;;;;5091244;28;20523;-71
2021/05/15 09:46:02;;;;;;;1.30;1.10;;;17.40;83.50;;;;;;5093219;28;20455;-71
2021/05/15 09:48:38;;;;;;;1.20;1.00;;;17.20;83.00;;;;;;5091180;28;20456;-71
2021/05/15 09:51:21;;;;;;;1.20;1.00;;;17.20;82.00;;;;;;5093301;28;20923;-70
2021/05/15 09:53:48;;;;;;;1.20;1.00;;;17.20;82.40;;;;;;5090766;28;20452;-71
2021/05/15 09:56:25;;;;;;;1.20;1.00;;;17.30;82.70;;;;;;5093363;28;20482;-72
2021/05/15 09:58:52;;;;;;;1.20;1.00;;;17.50;84.30;;;;;;5091412;28;20521;-71
2021/05/15 10:01:19;;;;;;;1.30;1.10;;;17.70;83.00;;;;;;5093179;28;20551;-71
2021/05/15 10:03:48;;;;;;;1.20;1.00;;;18.10;83.20;;;;;;5091387;28;20479;-71
2021/05/15 10:06:17;;;;;;;1.73;1.20;;;18.30;80.60;;;;;;5093239;28;20462;-71
2021/05/15 10:08:44;;;;;;;1.20;1.10;;;18.50;80.90;;;;;;5091307;28;20505;-71
2021/05/15 10:11:11;;;;;;;1.20;1.00;;;18.80;80.30;;;;;;5092635;28;20482;-69
2021/05/15 10:13:40;;;;;;;1.20;1.00;;;19.00;78.80;;;;;;5089747;28;20517;-69
2021/05/15 10:16:07;;;;;;;1.40;1.10;;;18.80;78.70;;;;;;5091916;28;20601;-69
2021/05/15 10:18:34;;;;;;;1.20;1.10;;;18.50;79.50;;;;;;5090281;28;20463;-69
2021/05/15 10:21:02;;;;;;;1.20;1.00;;;18.30;78.50;;;;;;5092174;28;20456;-69
2021/05/15 10:23:36;;;;;;;1.20;1.00;;;17.90;80.60;;;;;;5090737;28;21017;-71
2021/05/15 10:26:04;;;;;;;1.30;1.00;;;17.80;82.00;;;;;;5092257;28;20871;-71
2021/05/15 10:28:32;;;;;;;1.20;1.13;;;17.50;83.00;;;;;;5089967;28;20448;-71
2021/05/15 10:31:10;;;;;;;1.20;1.00;;;17.60;84.00;;;;;;5092055;28;20513;-71
2021/05/15 10:33:38;;;;;;;1.20;0.90;;;17.60;85.20;;;;;;5090406;28;20467;-70
2021/05/15 10:36:06;;;;;;;1.20;1.03;;;17.60;81.50;;;;;;5091935;28;20784;-71
2021/05/15 10:38:36;;;;;;;2.50;1.20;;;18.00;85.30;;;;;;5091877;28;20573;-71
2021/05/15 10:41:16;;;;;;;1.20;1.10;;;18.60;83.00;;;;;;5092587;28;20484;-71
2021/05/15 10:43:44;;;;;;;1.20;1.00;;;18.70;80.70;;;;;;5091837;28;20530;-71
2021/05/15 10:46:16;;;;;;;1.40;1.13;;;18.60;80.90;;;;;;5096284;28;20487;-71
2021/05/15 10:49:08;;;;;;;1.20;1.00;;;18.40;81.50;;;;;;5092879;28;20821;-71
2021/05/15 10:51:39;;;;;;;1.20;1.10;;;17.90;82.30;;;;;;5096511;28;20490;-71
2021/05/15 10:54:10;;;;;;;1.30;1.10;;;17.10;83.00;;;;;;5093773;28;20456;-72
2021/05/15 10:56:37;;;;;;;1.20;1.00;;;16.80;85.60;;;;;;5094619;28;20456;-72
2021/05/15 10:59:08;;;;;;;1.20;1.00;;;16.50;86.10;;;;;;5092348;28;20463;-72
2021/05/15 11:01:49;;;;;;;1.20;0.90;;;16.30;86.60;;;;;;5094187;28;20904;-71
2021/05/15 11:04:21;;;;;;;1.20;1.00;;;16.40;88.10;;;;;;5092112;28;20502;-72
2021/05/15 11:07:07;;;;;;;1.20;1.00;;;17.00;85.20;;;;;;5095695;28;20459;-72
2021/05/15 11:09:39;;;;;;;1.20;1.10;;;17.70;84.90;;;;;;5095517;28;20452;-71
2021/05/15 11:12:11;;;;;;;1.20;1.20;;;18.30;81.30;;;;;;5092298;28;20460;-72
2021/05/15 11:14:42;;;;;;;1.73;1.10;;;18.30;79.20;;;;;;5093667;28;20495;-72
2021/05/15 11:17:13;;;;;;;1.20;1.03;;;18.20;80.40;;;;;;5091174;28;20456;-71
2021/05/15 11:19:47;;;;;;;1.20;0.90;;;18.20;79.60;;;;;;5091323;28;20483;-72
2021/05/15 11:22:16;;;;;;;1.20;0.90;;;18.20;78.10;;;;;;5089340;28;20455;-72
2021/05/15 11:24:55;;;;;;;1.80;1.00;;;18.00;79.30;;;;;;5091058;28;20484;-72
2021/05/15 11:27:23;;;;;;;1.20;1.07;;;17.90;83.20;;;;;;5088751;28;20927;-71
2021/05/15 11:30:05;;;;;;;1.20;1.03;;;17.70;81.80;;;;;;5089970;28;20448;-71
2021/05/15 11:32:31;;;;;;;1.30;1.20;;;17.60;83.50;;;;;;5088877;28;20468;-71
2021/05/15 11:35:04;;;;;;;1.30;1.10;;;17.90;84.20;;;;;;5091232;28;20459;-71
2021/05/15 11:37:30;;;;;;;1.20;1.00;;;18.20;84.20;;;;;;5088284;28;20459;-71
2021/05/15 11:39:58;;;;;;;1.30;1.10;;;18.30;80.00;;;;;;5090837;28;20997;-71
2021/05/15 11:42:30;;;;;;;1.20;1.10;;;18.30;80.00;;;;;;5087566;28;20458;-71
2021/05/15 11:44:57;;;;;;;1.20;1.07;;;18.30;78.60;;;;;;5090553;28;20494;-71
2021/05/15 11:47:25;;;;;;;1.20;1.00;;;17.90;78.20;;;;;;5087334;28;20485;-71
2021/05/15 11:49:59;;;;;;;1.20;1.00;;;17.60;79.80;;;;;;5090677;28;20486;-71
2021/05/15 11:52:32;;;;;;;1.60;1.13;;;17.40;79.80;;;;;;5088491;28;20969;-71
2021/05/15 11:55:01;;;;;;;1.20;0.90;;;17.10;79.80;;;;;;5089583;28;20463;-71
2021/05/15 11:57:28;;;;;;;1.30;1.10;;;16.90;81.50;;;;;;5088613;28;20819;-71
2021/05/15 12:00:06;;;;;;;1.20;0.90;;;16.60;83.30;;;;;;5092677;28;20492;-71
2021/05/15 12:02:33;;;;;;;1.20;1.00;;;15.90;87.60;;;;;;5094553;28;20466;-73
2021/05/15 12:04:59;;;;;;;1.20;1.00;;;15.50;90.70;;;;;;5091981;28;20483;-72
2021/05/15 12:07:26;;;;;;;1.20;1.03;;;15.30;90.20;;;;;;5089915;28;20820;-73
2021/05/15 12:09:53;;;;;;;1.20;1.00;;;15.10;94.10;;;;;;5092616;28;20939;-73
2021/05/15 12:12:21;;;;;;;1.20;1.00;;;15.20;97.10;;;;;;5090196;28;20461;-72
2021/05/15 12:14:48;;;;;;;1.20;1.00;;;15.60;98.00;;;;;;5090834;28;20444;-71
2021/05/15 12:17:17;;;;;;;1.20;1.00;;;16.10;98.00;;;;;;5089294;28;20482;-71
2021/05/15 12:19:53;;;;;;;1.20;1.00;;;16.40;98.00;;;;;;5089693;28;20460;-72
2021/05/15 12:22:25;;;;;;;1.20;1.03;;;16.60;96.90;;;;;;5088708;28;20447;-72
2021/05/15 12:24:52;;;;;;;1.20;1.00;;;16.90;95.00;;;;;;5090694;28;20562;-71
2021/05/15 12:27:21;;;;;;;1.20;1.00;;;17.10;88.70;;;;;;5089031;28;20455;-71
2021/05/15 12:29:59;;;;;;;1.20;1.00;;;17.40;90.70;;;;;;5090548;28;20464;-72
2021/05/15 12:32:26;;;;;;;1.20;1.00;;;17.50;87.70;;;;;;5089410;28;20470;-72
2021/05/15 12:34:58;;;;;;;1.20;1.20;;;17.60;90.20;;;;;;5091354;28;20858;-72
2021/05/15 12:37:33;;;;;;;1.20;1.00;;;17.80;90.30;;;;;;5088733;28;20466;-72
2021/05/15 12:40:02;;;;;;;1.20;1.00;;;17.80;86.40;;;;;;5094041;28;20463;-72
2021/05/15 12:42:31;;;;;;;1.40;1.10;;;17.80;82.70;;;;;;5092600;28;20734;-72
2021/05/15 12:45:08;;;;;;;1.20;1.00;;;17.90;83.40;;;;;;5094584;28;21009;-72
2021/05/15 12:47:35;;;;;;;1.20;1.00;;;18.00;82.80;;;;;;5092717;28;20459;-72
2021/05/15 12:50:02;;;;;;;1.20;1.00;;;18.30;79.60;;;;;;5094612;28;20455;-72
2021/05/15 12:52:36;;;;;;;1.83;1.10;;;18.90;78.30;;;;;;5091958;28;20965;-72